Time;durP1;ratioP1;P1;durP2;ratioP2;P2;SDS_P1;SDS_P2;PMS_P1;PMS_P2;Temp;Humidity;BMP_temperature;BMP_pressure;BME280_temperature;BME280_humidity;BME280_pressure;Samples;Min_cycle;Max_cycle;Signal;HPM_P1;HPM_P2
2022/12/29 00:02:07;;;;;;;42.25;25.20;;;;;;;4.66;81.57;100635.00;5114508;28;20462;-70
2022/12/29 00:04:33;;;;;;;43.20;24.63;;;;;;;4.62;81.41;100641.09;5108372;28;20024;-70
2022/12/29 00:06:58;;;;;;;47.47;26.40;;;;;;;4.64;81.37;100646.34;5113249;28;20027;-70
2022/12/29 00:09:25;;;;;;;43.17;23.70;;;;;;;4.59;81.17;100644.41;5113311;28;20023;-70
2022/12/29 00:11:51;;;;;;;38.70;21.77;;;;;;;4.63;81.13;100648.31;5112196;28;20111;-70
2022/12/29 00:17:01;;;;;;;39.10;22.10;;;;;;;4.64;81.13;100647.19;5114172;28;20030;-70
2022/12/29 00:36:04;;;;;;;39.50;24.55;;;;;;;4.64;79.77;100661.06;5114013;28;20066;-70
2022/12/29 00:44:05;;;;;;;42.75;26.35;;;;;;;4.58;79.53;100670.41;5105620;28;20070;-71
2022/12/29 00:46:35;;;;;;;48.50;26.60;;;;;;;4.57;78.70;100668.75;5112285;28;20024;-71
2022/12/29 00:51:45;;;;;;;49.78;27.90;;;;;;;4.58;78.72;100659.31;5112668;28;20404;-71
2022/12/29 00:54:11;;;;;;;43.28;27.15;;;;;;;4.55;79.19;100665.41;5111120;28;20019;-71
2022/12/29 00:56:37;;;;;;;49.22;29.42;;;;;;;4.58;79.15;100670.41;5109554;28;20094;-70
2022/12/29 00:59:04;;;;;;;52.97;30.33;;;;;;;4.53;79.73;100673.16;5112010;28;20024;-70
2022/12/29 01:01:30;;;;;;;54.35;31.50;;;;;;;4.52;79.66;100679.81;5110111;28;20032;-70
2022/12/29 01:03:56;;;;;;;57.50;31.88;;;;;;;4.44;79.64;100674.75;5111962;28;20472;-71
2022/12/29 01:06:22;;;;;;;58.13;32.08;;;;;;;4.34;79.87;100669.97;5113300;28;20027;-70
2022/12/29 01:10:09;;;;;;;54.30;32.30;;;;;;;4.20;80.22;100675.94;5111357;28;20520;-70
2022/12/29 01:11:33;;;;;;;58.58;32.80;;;;;;;4.08;80.69;100658.66;5112351;28;20536;-70
2022/12/29 01:13:58;;;;;;;54.65;30.52;;;;;;;3.88;81.54;100667.59;5112986;28;20051;-70
2022/12/29 01:16:24;;;;;;;56.97;31.95;;;;;;;3.68;82.47;100657.97;5113027;28;20028;-70
2022/12/29 01:18:49;;;;;;;49.50;29.38;;;;;;;3.89;82.25;100660.97;5109999;28;20024;-70
2022/12/29 01:21:15;;;;;;;46.92;28.42;;;;;;;3.88;82.54;100656.53;5111613;28;20027;-70
2022/12/29 01:23:40;;;;;;;56.70;30.10;;;;;;;3.90;82.32;100657.91;5110994;28;20062;-71
2022/12/29 01:26:14;;;;;;;54.00;32.10;;;;;;;4.05;81.85;100659.19;5111740;28;20031;-71
2022/12/29 01:28:40;;;;;;;58.17;31.13;;;;;;;3.92;81.89;100652.13;5112004;28;20039;-70
2022/12/29 01:31:06;;;;;;;51.97;30.38;;;;;;;3.82;81.76;100638.16;5111515;28;20059;-70
2022/12/29 01:33:32;;;;;;;52.03;28.52;;;;;;;3.92;81.43;100641.06;5110329;28;20391;-71
2022/12/29 01:36:01;;;;;;;47.65;27.05;;;;;;;3.87;82.02;100639.06;5111701;28;20064;-70
2022/12/29 01:38:27;;;;;;;53.17;28.40;;;;;;;3.93;82.53;100643.56;5112522;28;20514;-70
2022/12/29 01:40:52;;;;;;;53.85;27.75;;;;;;;3.97;82.61;100634.72;5111185;28;20047;-70
2022/12/29 01:43:18;;;;;;;46.15;25.50;;;;;;;4.08;82.62;100631.78;5112444;28;20023;-71
2022/12/29 01:45:54;;;;;;;47.58;26.48;;;;;;;4.10;82.48;100627.91;5110253;28;20034;-70
2022/12/29 01:48:20;;;;;;;49.00;25.83;;;;;;;4.11;81.90;100630.44;5110749;28;20027;-70
2022/12/29 01:50:50;;;;;;;44.35;25.42;;;;;;;4.14;82.07;100631.84;5109438;28;20028;-72
2022/12/29 01:53:21;;;;;;;46.65;25.35;;;;;;;4.14;82.37;100623.53;5103588;28;20315;-70
2022/12/29 01:55:51;;;;;;;44.92;26.20;;;;;;;4.12;82.13;100618.25;5109611;28;20473;-70
2022/12/29 01:58:20;;;;;;;;;;;;;;;4.10;81.67;100614.06;5112704;28;20062;-71
2022/12/29 02:00:45;;;;;;;47.60;26.13;;;;;;;3.94;81.98;100605.63;5112163;28;19907;-70
2022/12/29 02:03:11;;;;;;;45.85;26.10;;;;;;;3.96;81.86;100606.19;5112051;28;20135;-70
2022/12/29 02:05:54;;;;;;;42.33;26.67;;;;;;;3.92;82.01;100602.28;5111169;28;20027;-71
2022/12/29 02:08:24;;;;;;;45.70;26.05;;;;;;;3.90;81.60;100602.53;5112033;28;20538;-71
2022/12/29 02:10:50;;;;;;;49.13;28.13;;;;;;;3.94;81.72;100600.09;5110035;28;20020;-71
2022/12/29 02:13:17;;;;;;;46.75;27.27;;;;;;;3.96;82.61;100597.06;5112253;28;20080;-71
2022/12/29 02:16:19;;;;;;;55.55;31.33;;;;;;;3.86;82.56;100592.25;5110674;28;20170;-70
2022/12/29 02:19:03;;;;;;;55.20;30.38;;;;;;;3.88;82.38;100590.09;5110922;28;20402;-70
2022/12/29 02:21:31;;;;;;;52.35;30.60;;;;;;;3.71;83.10;100579.94;5111839;28;20023;-71
2022/12/29 02:24:45;;;;;;;53.92;33.97;;;;;;;3.76;83.72;100582.78;5109146;28;20038;-71
2022/12/29 02:27:56;;;;;;;52.53;32.35;;;;;;;3.78;83.58;100575.03;5103200;28;20042;-71
2022/12/29 02:31:04;;;;;;;52.65;32.53;;;;;;;3.94;82.98;100580.72;5099554;28;20073;-71
2022/12/29 02:33:55;;;;;;;50.80;30.42;;;;;;;4.01;82.23;100583.25;5107801;28;20035;-70
2022/12/29 02:36:26;;;;;;;52.50;29.45;;;;;;;4.03;82.77;100586.59;5108503;28;20028;-71
2022/12/29 02:38:59;;;;;;;53.17;30.05;;;;;;;4.02;81.76;100585.78;5094092;28;20035;-70
2022/12/29 02:41:52;;;;;;;51.05;28.60;;;;;;;3.93;81.49;100579.91;5091323;28;20023;-71
2022/12/29 02:44:50;;;;;;;51.15;29.40;;;;;;;3.98;82.03;100573.56;5111326;28;20028;-71
2022/12/29 02:47:35;;;;;;;46.53;27.52;;;;;;;3.94;81.51;100577.94;5110577;28;20022;-71
2022/12/29 02:50:15;;;;;;;47.88;27.67;;;;;;;3.91;81.96;100576.53;5111450;28;20486;-71
2022/12/29 02:52:50;;;;;;;68.65;32.95;;;;;;;3.87;81.65;100566.28;5109824;28;20072;-70
2022/12/29 02:55:15;;;;;;;60.08;34.70;;;;;;;3.54;82.51;100570.94;5110314;28;20043;-70
2022/12/29 02:57:41;;;;;;;87.47;48.13;;;;;;;3.30;83.25;100568.47;5107860;28;20035;-70
2022/12/29 03:00:08;;;;;;;71.10;38.03;;;;;;;3.00;83.80;100567.84;5111485;28;20020;-71
2022/12/29 03:02:55;;;;;;;62.05;33.40;;;;;;;2.54;86.31;100576.34;5107738;28;20043;-71
2022/12/29 03:05:29;;;;;;;60.35;33.67;;;;;;;1.87;89.83;100569.78;5127241;27;20027;-70
2022/12/29 03:08:39;;;;;;;57.45;33.78;;;;;;;1.90;91.55;100572.03;5115023;28;20038;-70
2022/12/29 03:17:09;;;;;;;58.03;33.53;;;;;;;2.54;88.39;100557.03;5115300;28;20031;-71
2022/12/29 03:19:37;;;;;;;64.47;35.83;;;;;;;2.66;86.56;100552.22;5112752;28;20015;-71
2022/12/29 03:22:32;;;;;;;62.20;33.50;;;;;;;2.72;86.04;100558.66;5112062;28;20038;-70
2022/12/29 03:25:15;;;;;;;69.90;35.72;;;;;;;2.30;86.61;100565.50;5115234;28;20239;-70
2022/12/29 03:27:48;;;;;;;52.83;30.00;;;;;;;2.21;86.06;100565.09;5115111;28;20034;-70
2022/12/29 03:30:14;;;;;;;50.40;28.48;;;;;;;2.14;85.89;100563.59;5115027;28;20015;-70
2022/12/29 03:32:54;;;;;;;50.38;28.60;;;;;;;2.30;85.38;100562.75;5107715;28;20031;-70
2022/12/29 03:35:23;;;;;;;56.53;29.63;;;;;;;2.34;84.97;100546.50;5094965;28;20127;-71
2022/12/29 03:38:04;;;;;;;55.30;30.88;;;;;;;2.44;84.70;100548.59;5093252;28;20047;-71
2022/12/29 03:40:33;;;;;;;55.63;28.70;;;;;;;2.43;84.45;100550.50;5094432;28;20035;-70
2022/12/29 03:42:59;;;;;;;52.50;27.67;;;;;;;1.98;84.47;100555.06;5094523;28;20095;-70
2022/12/29 03:45:25;;;;;;;51.75;28.90;;;;;;;2.02;86.24;100545.19;5094420;28;20084;-71
2022/12/29 03:47:52;;;;;;;52.03;28.92;;;;;;;2.32;85.44;100554.19;5101671;28;20102;-71
2022/12/29 03:50:18;;;;;;;54.00;30.17;;;;;;;2.42;84.40;100556.28;5114115;28;20032;-71
2022/12/29 03:52:43;;;;;;;54.45;30.27;;;;;;;2.58;83.71;100558.19;5112925;27;20020;-71
2022/12/29 03:55:09;;;;;;;55.60;28.92;;;;;;;2.61;83.22;100562.38;5112030;28;20050;-71
2022/12/29 03:57:34;;;;;;;55.58;29.05;;;;;;;2.56;83.62;100554.84;5114622;28;20020;-71
2022/12/29 04:00:00;;;;;;;52.20;29.40;;;;;;;2.24;85.75;100561.84;5113655;28;20031;-71
2022/12/29 04:02:25;;;;;;;54.22;29.35;;;;;;;2.42;85.92;100564.59;5113959;28;20031;-72
2022/12/29 04:04:51;;;;;;;75.32;33.60;;;;;;;2.50;85.33;100561.38;5113057;28;20026;-71
2022/12/29 04:07:16;;;;;;;77.57;39.97;;;;;;;2.55;84.92;100563.38;5113725;28;20522;-71
2022/12/29 04:09:41;;;;;;;94.80;50.10;;;;;;;2.53;85.67;100581.03;5114238;28;20398;-71
2022/12/29 04:12:07;;;;;;;80.72;44.95;;;;;;;2.51;85.32;100571.31;5110560;28;20019;-71
2022/12/29 04:14:32;;;;;;;73.93;39.78;;;;;;;1.77;88.45;100576.78;5113168;28;20037;-71
2022/12/29 04:16:58;;;;;;;63.22;35.13;;;;;;;1.43;90.62;100576.72;5113130;27;20024;-71
2022/12/29 04:19:23;;;;;;;65.93;39.28;;;;;;;1.33;90.52;100560.81;5112776;28;20398;-71
2022/12/29 04:21:49;;;;;;;60.67;35.53;;;;;;;1.05;90.97;100587.31;5110799;28;20031;-71
2022/12/29 04:24:14;;;;;;;66.88;37.05;;;;;;;1.04;92.90;100582.88;5113940;28;20023;-71
2022/12/29 04:26:41;;;;;;;78.68;39.97;;;;;;;1.03;92.13;100594.97;5105597;28;20525;-71
2022/12/29 04:29:06;;;;;;;70.35;38.60;;;;;;;1.41;91.21;100587.16;5105083;28;20142;-71
2022/12/29 04:31:31;;;;;;;69.65;38.72;;;;;;;1.66;89.68;100585.97;5113968;27;20023;-72
2022/12/29 04:33:57;;;;;;;79.60;41.40;;;;;;;1.65;89.05;100587.91;5113229;28;20057;-71
2022/12/29 04:36:23;;;;;;;87.97;39.08;;;;;;;1.67;88.88;100580.22;5111706;28;20501;-70
2022/12/29 04:38:49;;;;;;;79.93;38.70;;;;;;;1.75;88.09;100578.97;5113904;28;20035;-71
2022/12/29 04:41:14;;;;;;;74.40;41.55;;;;;;;1.88;87.61;100594.38;5113736;28;20028;-71
2022/12/29 04:43:40;;;;;;;78.05;43.47;;;;;;;1.71;87.43;100590.75;5113703;28;20034;-71
2022/12/29 04:46:06;;;;;;;78.95;43.60;;;;;;;1.91;87.14;100593.88;5113661;27;20051;-71
2022/12/29 04:48:31;;;;;;;84.10;44.75;;;;;;;2.06;86.64;100606.25;5110861;28;20524;-71
2022/12/29 04:50:57;;;;;;;67.10;37.70;;;;;;;2.00;86.25;100608.09;5111516;28;20027;-71
2022/12/29 04:53:22;;;;;;;64.60;37.65;;;;;;;2.06;86.25;100612.63;5097980;28;20030;-69
2022/12/29 04:55:49;;;;;;;68.55;34.13;;;;;;;2.20;85.76;100618.63;5098973;28;20052;-70
2022/12/29 04:58:15;;;;;;;66.63;37.33;;;;;;;2.20;85.45;100606.75;5112288;28;20076;-69
2022/12/29 05:00:40;;;;;;;71.68;35.80;;;;;;;2.29;84.54;100607.19;5111976;28;20027;-68
2022/12/29 05:03:06;;;;;;;58.20;32.80;;;;;;;2.27;84.78;100607.41;5112710;28;20047;-68
2022/12/29 05:05:31;;;;;;;66.32;33.30;;;;;;;2.15;84.34;100598.38;5111940;28;20024;-69
2022/12/29 05:07:57;;;;;;;57.40;33.85;;;;;;;2.03;84.35;100604.81;5113289;28;20027;-68
2022/12/29 05:10:22;;;;;;;63.65;34.88;;;;;;;2.10;83.66;100611.03;5111800;28;20028;-68
2022/12/29 05:12:48;;;;;;;61.70;33.53;;;;;;;2.13;83.57;100603.31;5103877;28;20371;-68
2022/12/29 05:15:13;;;;;;;62.63;34.63;;;;;;;2.16;82.60;100600.06;5111351;28;20032;-69
2022/12/29 05:17:39;;;;;;;62.50;35.17;;;;;;;2.17;82.65;100593.44;5110649;28;20027;-69
2022/12/29 05:20:05;;;;;;;62.78;33.60;;;;;;;2.20;82.71;100604.81;5113534;28;20027;-69
2022/12/29 05:22:31;;;;;;;74.93;37.05;;;;;;;2.21;82.70;100600.16;5106018;28;20019;-69
2022/12/29 05:24:56;;;;;;;66.35;37.55;;;;;;;2.14;82.17;100591.19;5109372;28;20417;-69
2022/12/29 05:27:22;;;;;;;65.55;38.35;;;;;;;2.18;81.98;100589.63;5102428;28;20031;-68
2022/12/29 05:29:47;;;;;;;78.22;41.22;;;;;;;2.17;81.29;100588.78;5111050;28;20024;-69
2022/12/29 05:32:13;;;;;;;76.63;40.67;;;;;;;2.09;81.18;100590.03;5111365;28;20031;-69
2022/12/29 05:34:38;;;;;;;64.72;38.58;;;;;;;1.71;82.64;100586.06;5112769;28;20458;-68
2022/12/29 05:37:04;;;;;;;57.38;32.40;;;;;;;1.50;84.01;100593.97;5111688;28;20062;-69
2022/12/29 05:39:29;;;;;;;54.95;31.02;;;;;;;1.40;85.11;100589.09;5109817;28;20023;-69
2022/12/29 05:41:54;;;;;;;59.35;31.40;;;;;;;1.45;85.54;100599.41;5108638;28;20027;-68
2022/12/29 05:44:20;;;;;;;68.00;33.92;;;;;;;1.62;85.66;100598.59;5105536;28;20023;-68
2022/12/29 05:46:46;;;;;;;62.42;35.95;;;;;;;1.74;85.39;100596.59;5107742;28;20024;-69
2022/12/29 05:49:11;;;;;;;66.97;35.25;;;;;;;1.72;85.89;100590.50;5090702;28;20120;-68
2022/12/29 05:51:37;;;;;;;62.17;33.47;;;;;;;1.74;85.69;100588.31;5092014;28;20058;-68
2022/12/29 05:54:02;;;;;;;55.00;30.70;;;;;;;1.78;85.43;100585.91;5092002;28;20491;-69
2022/12/29 05:56:28;;;;;;;58.53;33.38;;;;;;;1.40;84.91;100588.25;5091811;28;20245;-69
2022/12/29 05:58:53;;;;;;;62.40;34.42;;;;;;;1.46;85.26;100591.94;5109734;28;20042;-68
2022/12/29 06:01:19;;;;;;;64.30;35.22;;;;;;;1.46;84.53;100581.75;5111105;28;20034;-67
2022/12/29 06:03:44;;;;;;;68.75;36.55;;;;;;;1.34;84.07;100575.47;5111360;28;20023;-69
2022/12/29 06:06:10;;;;;;;86.95;47.22;;;;;;;1.48;83.17;100587.88;5110569;28;20032;-69
2022/12/29 06:08:35;;;;;;;76.78;38.85;;;;;;;1.48;82.74;100582.34;5112024;28;20056;-68
2022/12/29 06:11:01;;;;;;;65.93;35.55;;;;;;;1.52;82.48;100594.53;5111954;28;20024;-69
2022/12/29 06:13:27;;;;;;;72.10;42.42;;;;;;;1.19;82.77;100590.59;5107420;28;20035;-69
2022/12/29 06:15:53;;;;;;;68.50;39.85;;;;;;;1.29;83.87;100594.66;5105170;28;20032;-68
2022/12/29 06:18:18;;;;;;;80.30;44.08;;;;;;;1.52;83.37;100599.25;5091541;28;20406;-69
2022/12/29 06:20:44;;;;;;;83.70;41.35;;;;;;;1.72;82.77;100607.06;5105703;28;20023;-68
2022/12/29 06:23:11;;;;;;;74.75;44.15;;;;;;;1.81;82.89;100611.09;5111808;28;20542;-68
2022/12/29 06:25:37;;;;;;;97.47;48.40;;;;;;;1.86;83.40;100603.97;5110553;28;20030;-69
2022/12/29 06:28:03;;;;;;;82.95;44.15;;;;;;;1.72;83.59;100615.31;5110582;28;20426;-69
2022/12/29 06:30:28;;;;;;;121.40;70.80;;;;;;;1.15;86.77;100613.38;5110689;28;20438;-69
2022/12/29 06:32:54;;;;;;;110.53;64.78;;;;;;;1.31;88.61;100617.28;5111652;28;20027;-69
2022/12/29 06:35:22;;;;;;;82.82;49.72;;;;;;;1.32;89.48;100630.84;5109416;28;20031;-68
2022/12/29 06:37:47;;;;;;;88.60;50.28;;;;;;;1.53;89.71;100631.25;5110293;28;20038;-68
2022/12/29 06:40:13;;;;;;;83.38;48.42;;;;;;;1.41;89.96;100634.03;5108180;28;20032;-68
2022/12/29 06:42:38;;;;;;;95.22;52.10;;;;;;;1.21;91.21;100639.97;5108034;28;20089;-68
2022/12/29 06:45:04;;;;;;;103.30;48.75;;;;;;;1.23;92.02;100638.66;5111043;28;20023;-69
2022/12/29 06:47:30;;;;;;;86.40;44.80;;;;;;;1.45;92.04;100645.41;5101055;28;20356;-69
2022/12/29 06:49:55;;;;;;;93.03;44.67;;;;;;;1.67;91.40;100645.56;5102424;28;20031;-69
2022/12/29 06:52:21;;;;;;;81.90;42.50;;;;;;;1.97;89.93;100652.75;5101993;28;20043;-69
2022/12/29 06:54:46;;;;;;;94.20;45.85;;;;;;;1.99;90.51;100656.09;5094487;28;20048;-70
2022/12/29 06:57:12;;;;;;;163.77;88.88;;;;;;;2.10;89.66;100652.44;5101342;28;20055;-71
2022/12/29 06:59:37;;;;;;;167.40;94.78;;;;;;;2.30;89.69;100650.25;5123986;27;20164;-69
2022/12/29 07:02:02;;;;;;;199.98;106.13;;;;;;;2.53;88.86;100644.56;5104411;28;20513;-69
2022/12/29 07:04:29;;;;;;;253.20;126.53;;;;;;;2.72;88.04;100647.06;5110689;28;20034;-67
2022/12/29 07:06:55;;;;;;;210.73;116.10;;;;;;;2.89;87.64;100654.47;5111070;28;20034;-69
2022/12/29 07:09:20;;;;;;;223.82;114.75;;;;;;;3.00;86.68;100647.16;5108861;28;20031;-69
2022/12/29 07:11:46;;;;;;;186.82;103.43;;;;;;;2.91;86.53;100655.06;5108596;28;20066;-69
2022/12/29 07:14:11;;;;;;;139.80;74.13;;;;;;;2.79;86.24;100653.22;5111394;28;20027;-69
2022/12/29 07:16:37;;;;;;;124.18;68.65;;;;;;;2.94;85.60;100660.91;5110791;28;20035;-69
2022/12/29 07:19:03;;;;;;;128.05;62.50;;;;;;;3.01;85.46;100660.72;5109277;28;20034;-68
2022/12/29 07:21:28;;;;;;;108.45;57.45;;;;;;;3.06;84.86;100658.03;5109604;28;20402;-68
2022/12/29 07:23:54;;;;;;;102.05;55.20;;;;;;;3.02;85.57;100662.41;5108913;28;20399;-68
2022/12/29 07:26:20;;;;;;;95.38;51.97;;;;;;;3.00;85.06;100658.22;5107353;28;20183;-65
2022/12/29 07:28:45;;;;;;;121.70;63.05;;;;;;;3.04;85.67;100656.63;5102938;28;20478;-66
2022/12/29 07:31:16;;;;;;;124.72;68.10;;;;;;;3.15;85.40;100658.44;5108311;28;20076;-69
2022/12/29 07:33:43;;;;;;;126.03;65.68;;;;;;;3.13;84.97;100637.66;5108623;28;20027;-72
2022/12/29 07:36:09;;;;;;;111.78;64.25;;;;;;;3.26;84.95;100653.03;5108747;28;20435;-73
2022/12/29 07:38:34;;;;;;;118.13;61.15;;;;;;;3.27;84.93;100640.91;5110179;28;20028;-73
2022/12/29 07:41:00;;;;;;;118.13;66.72;;;;;;;3.25;85.04;100637.53;5108712;28;20028;-70
2022/12/29 07:43:25;;;;;;;120.28;66.10;;;;;;;3.40;84.71;100643.25;5106757;28;20505;-76
2022/12/29 07:45:51;;;;;;;155.30;76.78;;;;;;;3.43;84.55;100642.75;5108348;28;20096;-74
2022/12/29 07:48:16;;;;;;;180.50;83.57;;;;;;;3.55;85.19;100650.06;5109369;28;20039;-76
2022/12/29 07:50:42;;;;;;;179.88;84.22;;;;;;;3.79;85.03;100642.28;5104407;28;20148;-75
2022/12/29 07:53:07;;;;;;;166.23;84.32;;;;;;;3.97;84.59;100641.09;5113914;28;20027;-72
2022/12/29 07:55:32;;;;;;;139.48;76.13;;;;;;;4.17;84.72;100640.47;5113164;28;20051;-74
2022/12/29 07:57:58;;;;;;;137.52;73.70;;;;;;;4.40;83.17;100645.91;5110711;28;20031;-74
2022/12/29 08:00:23;;;;;;;138.45;67.38;;;;;;;4.53;82.60;100631.59;5112638;28;20024;-73
2022/12/29 08:02:49;;;;;;;143.77;72.43;;;;;;;4.71;81.89;100644.19;5113279;28;20406;-73
2022/12/29 08:05:15;;;;;;;123.82;65.60;;;;;;;4.61;81.88;100638.56;5112285;28;20081;-75
2022/12/29 08:07:44;;;;;;;122.18;67.25;;;;;;;4.74;82.06;100640.06;5099297;27;20031;-73
2022/12/29 08:10:09;;;;;;;130.70;69.35;;;;;;;4.97;81.07;100633.25;5095409;28;20119;-75
2022/12/29 08:12:35;;;;;;;120.72;69.18;;;;;;;5.10;81.11;100643.03;5099942;28;20146;-76
2022/12/29 08:15:00;;;;;;;135.00;68.93;;;;;;;4.92;80.94;100639.59;5104019;28;20023;-74
2022/12/29 08:17:26;;;;;;;111.22;58.53;;;;;;;4.92;80.95;100639.59;5100368;28;20492;-74
2022/12/29 08:19:51;;;;;;;86.78;47.33;;;;;;;5.22;81.19;100639.22;5111843;28;20402;-75
2022/12/29 08:22:17;;;;;;;88.45;49.70;;;;;;;5.29;79.87;100639.78;5106473;28;20031;-73
2022/12/29 08:24:42;;;;;;;96.70;55.55;;;;;;;5.36;81.64;100637.59;5111513;28;20035;-72
2022/12/29 08:27:08;;;;;;;91.53;47.22;;;;;;;5.43;80.25;100635.41;5110966;28;20114;-72
2022/12/29 08:29:33;;;;;;;89.82;50.50;;;;;;;5.70;79.62;100634.38;5112899;28;20039;-73
2022/12/29 08:31:59;;;;;;;72.20;41.78;;;;;;;5.94;79.55;100628.31;5112068;27;20410;-69
2022/12/29 08:34:24;;;;;;;60.35;35.33;;;;;;;6.09;78.60;100629.47;5100898;28;20061;-69
2022/12/29 08:36:49;;;;;;;55.70;32.47;;;;;;;6.01;78.70;100622.50;5100309;28;20035;-68
2022/12/29 08:39:15;;;;;;;68.82;43.90;;;;;;;6.20;78.68;100619.19;5107847;28;20020;-71
2022/12/29 08:41:41;;;;;;;83.20;48.63;;;;;;;6.36;78.31;100614.47;5111463;27;20110;-71
2022/12/29 08:44:06;;;;;;;63.60;36.88;;;;;;;6.59;77.82;100613.09;5108086;28;20434;-71
2022/12/29 08:46:32;;;;;;;64.97;35.88;;;;;;;6.56;77.80;100617.25;5105163;28;20023;-70
2022/12/29 08:48:57;;;;;;;67.32;37.72;;;;;;;6.52;78.35;100615.31;5104088;28;20077;-75
2022/12/29 08:51:23;;;;;;;58.00;34.85;;;;;;;6.53;78.66;100612.25;5101015;28;20032;-71
2022/12/29 08:53:48;;;;;;;56.30;32.53;;;;;;;6.69;78.20;100612.22;5105649;28;20460;-74
2022/12/29 08:56:14;;;;;;;57.22;30.60;;;;;;;6.84;78.36;100606.63;5102378;27;20043;-74
2022/12/29 08:58:40;;;;;;;57.65;31.60;;;;;;;6.78;78.17;100604.97;5107049;28;20031;-73
2022/12/29 09:01:06;;;;;;;52.80;32.60;;;;;;;7.14;76.73;100612.38;5104206;28;20016;-70
2022/12/29 09:03:31;;;;;;;42.90;27.20;;;;;;;7.25;75.87;100590.91;5099773;28;20030;-70
2022/12/29 09:05:57;;;;;;;45.15;26.13;;;;;;;7.23;76.05;100593.97;5100071;28;20031;-69
2022/12/29 09:08:22;;;;;;;42.53;26.20;;;;;;;7.35;74.89;100582.50;5104480;27;20522;-69
2022/12/29 09:10:48;;;;;;;46.05;26.15;;;;;;;7.21;73.67;100575.88;5095511;28;20063;-72
2022/12/29 09:13:15;;;;;;;37.20;22.65;;;;;;;7.14;73.25;100581.75;5101097;27;20035;-69
2022/12/29 09:15:41;;;;;;;42.65;23.38;;;;;;;7.52;73.42;100571.00;5108757;28;20023;-70
2022/12/29 09:18:08;;;;;;;35.95;22.05;;;;;;;7.59;72.35;100570.66;5107709;28;20114;-70
2022/12/29 09:20:34;;;;;;;48.28;25.40;;;;;;;7.78;71.40;100570.00;5109737;28;20020;-70
2022/12/29 09:23:00;;;;;;;41.17;24.70;;;;;;;7.99;71.36;100574.31;5108671;28;20452;-68
2022/12/29 09:25:25;;;;;;;39.10;24.58;;;;;;;8.22;70.07;100560.75;5107695;28;20155;-72
2022/12/29 09:27:52;;;;;;;41.90;24.10;;;;;;;8.07;70.92;100563.63;5109199;28;20042;-71
2022/12/29 09:30:21;;;;;;;39.33;24.65;;;;;;;7.89;71.40;100556.81;5108367;28;20110;-68
2022/12/29 09:32:46;;;;;;;37.45;23.08;;;;;;;8.13;70.87;100556.91;5108550;28;20486;-69
2022/12/29 09:35:13;;;;;;;85.80;41.65;;;;;;;8.09;71.00;100553.06;5110758;28;20031;-68
2022/12/29 09:37:39;;;;;;;47.72;26.23;;;;;;;8.14;70.53;100553.84;5101531;28;20170;-69
2022/12/29 09:40:05;;;;;;;44.08;27.67;;;;;;;8.03;70.13;100548.63;5096267;28;20110;-70
2022/12/29 09:43:04;;;;;;;45.92;25.55;;;;;;;8.13;69.87;100541.00;5102710;28;20024;-69
2022/12/29 09:45:42;;;;;;;49.42;27.77;;;;;;;8.37;69.13;100534.66;5107413;27;20081;-69
2022/12/29 09:48:17;;;;;;;62.38;32.53;;;;;;;8.55;69.48;100535.91;5106137;28;20043;-68
2022/12/29 09:50:47;;;;;;;46.17;28.35;;;;;;;8.75;68.78;100531.22;5097884;27;20075;-69
2022/12/29 09:53:45;;;;;;;42.08;24.40;;;;;;;8.92;68.15;100529.91;5109268;28;20405;-69
2022/12/29 09:56:17;;;;;;;46.03;24.38;;;;;;;8.63;68.29;100517.72;5060518;28;20047;-68
2022/12/29 09:58:54;;;;;;;36.20;23.40;;;;;;;8.92;68.59;100519.59;5105383;28;20486;-72
2022/12/29 10:01:45;;;;;;;146.02;73.68;;;;;;;9.13;67.19;100522.94;5106221;28;20044;-68
2022/12/29 10:04:10;;;;;;;41.40;22.02;;;;;;;8.96;67.27;100505.88;5089468;28;20055;-69
2022/12/29 10:06:56;;;;;;;60.28;29.23;;;;;;;9.26;65.65;100504.63;5099171;28;20486;-70
2022/12/29 10:09:43;;;;;;;37.97;23.25;;;;;;;9.25;67.07;100504.91;5106017;28;20042;-71
2022/12/29 10:12:40;;;;;;;36.90;21.13;;;;;;;8.98;66.84;100493.25;5107363;28;20152;-71
2022/12/29 10:15:30;;;;;;;184.55;113.07;;;;;;;9.18;66.18;100482.16;5065617;28;20032;-71
2022/12/29 10:18:14;;;;;;;39.53;22.05;;;;;;;8.95;67.10;100479.09;5099642;28;20070;-72
2022/12/29 10:21:03;;;;;;;36.35;18.27;;;;;;;9.08;66.90;100483.94;5112263;28;20426;-76
2022/12/29 10:23:35;;;;;;;33.90;18.48;;;;;;;9.18;66.88;100479.34;5103572;28;20453;-77
2022/12/29 10:26:02;;;;;;;29.55;19.05;;;;;;;9.04;67.30;100480.06;5095798;28;20031;-77
2022/12/29 10:28:47;;;;;;;31.23;18.95;;;;;;;9.08;67.47;100478.38;5097191;28;20044;-73
2022/12/29 10:31:19;;;;;;;36.65;20.70;;;;;;;9.16;67.64;100467.63;5102696;28;20123;-71
2022/12/29 10:33:48;;;;;;;30.50;19.65;;;;;;;8.99;67.62;100474.56;5108519;28;20027;-71
2022/12/29 10:36:18;;;;;;;31.90;21.27;;;;;;;9.28;66.94;100468.00;5102942;28;20036;-76
2022/12/29 10:38:48;;;;;;;33.78;19.48;;;;;;;9.34;66.87;100469.63;5104239;28;20031;-73
2022/12/29 10:41:38;;;;;;;39.38;19.65;;;;;;;9.18;66.78;100459.81;5106208;28;20034;-73
2022/12/29 10:44:03;;;;;;;40.65;22.77;;;;;;;9.38;66.30;100461.47;5087847;28;20526;-73
2022/12/29 10:46:34;;;;;;;39.22;19.13;;;;;;;9.46;64.46;100452.38;5107805;28;20032;-71
2022/12/29 10:49:01;;;;;;;126.40;58.55;;;;;;;9.64;65.17;100458.25;5104522;28;20031;-73
2022/12/29 10:51:37;;;;;;;39.08;20.55;;;;;;;9.16;65.30;100440.56;5107947;28;20039;-69
2022/12/29 10:54:05;;;;;;;34.00;18.90;;;;;;;9.37;65.89;100455.03;5102946;28;20016;-75
2022/12/29 10:56:35;;;;;;;44.17;20.50;;;;;;;8.84;67.26;100451.34;5099175;28;20077;-72
2022/12/29 10:59:28;;;;;;;;;;;;;;;8.57;69.08;100457.53;5107409;28;20062;-77
2022/12/29 11:02:13;;;;;;;38.35;21.40;;;;;;;8.97;67.70;100440.56;5103284;28;19969;-74
2022/12/29 11:05:01;;;;;;;45.35;24.00;;;;;;;9.46;66.67;100446.00;5108668;28;20490;-75
2022/12/29 11:07:30;;;;;;;52.88;25.30;;;;;;;9.46;66.19;100446.81;5095119;28;20039;-74
2022/12/29 11:10:15;;;;;;;133.25;52.20;;;;;;;9.70;65.57;100437.47;5105909;28;20020;-73
2022/12/29 11:12:40;;;;;;;47.28;24.35;;;;;;;9.81;64.40;100430.56;5099477;28;20027;-73
2022/12/29 11:15:07;;;;;;;101.03;40.67;;;;;;;10.08;63.85;100442.13;5096733;28;20034;-75
2022/12/29 11:17:46;;;;;;;44.42;24.08;;;;;;;10.21;63.52;100434.91;5088700;28;20031;-73
2022/12/29 11:20:38;;;;;;;50.05;23.17;;;;;;;10.45;62.83;100428.34;5087778;28;20020;-73
2022/12/29 11:23:29;;;;;;;718.58;294.30;;;;;;;10.55;61.79;100419.69;5093789;28;20022;-71
2022/12/29 11:26:10;;;;;;;107.85;46.45;;;;;;;10.37;62.31;100421.44;5094514;28;20020;-71
2022/12/29 11:28:40;;;;;;;38.28;21.42;;;;;;;10.24;62.65;100418.31;5106851;28;20043;-70
2022/12/29 11:31:08;;;;;;;36.05;21.92;;;;;;;10.19;62.11;100392.44;5109087;28;20028;-71
2022/12/29 11:33:37;;;;;;;46.72;25.42;;;;;;;10.31;62.19;100415.13;5113281;28;20032;-71
2022/12/29 11:36:07;;;;;;;38.97;23.05;;;;;;;10.31;62.66;100415.13;5113755;28;20041;-69
2022/12/29 11:38:42;;;;;;;39.60;23.05;;;;;;;10.41;62.16;100411.34;5112681;28;20038;-70
2022/12/29 11:41:12;;;;;;;36.78;22.27;;;;;;;10.36;61.84;100406.63;5114807;28;20103;-69
2022/12/29 11:43:41;;;;;;;41.33;23.50;;;;;;;10.36;62.62;100403.84;5114032;28;20498;-71
2022/12/29 11:46:33;;;;;;;44.38;22.40;;;;;;;10.37;61.78;100397.09;5110521;28;20411;-71
2022/12/29 11:49:00;;;;;;;36.97;20.75;;;;;;;10.44;62.13;100405.13;5112377;28;20081;-69
2022/12/29 11:51:43;;;;;;;50.90;29.23;;;;;;;10.44;61.86;100395.88;5114604;28;20051;-72
2022/12/29 11:54:27;;;;;;;40.35;22.60;;;;;;;10.45;61.83;100395.59;5112823;28;20535;-73
2022/12/29 11:56:54;;;;;;;43.25;25.98;;;;;;;10.17;63.36;100383.53;5114829;28;20039;-71
2022/12/29 11:59:34;;;;;;;42.50;25.20;;;;;;;10.33;62.55;100387.69;5113000;28;20028;-73
2022/12/29 12:02:03;;;;;;;41.83;24.70;;;;;;;10.46;62.27;100386.03;5113795;28;20076;-72
2022/12/29 12:04:36;;;;;;;42.25;24.10;;;;;;;10.43;61.77;100369.06;5114651;28;20424;-71